x

9075099 - De Tour Village, Mi (dtlm4) Weather Station

8:54am - Tue 21st Apr 2015 All times are CDT. -5 hours from GMT.

  • Wind
    8mph, 13mph gusts
  • Air Temp 37°f
  • Sea Pressure 994.2mb
  • 9075099 - De Tour Village, Mi
  • 9075099 - De Tour Village, Mi

More Historic Weather Station data

Upgrade to MSW Pro to gain access to the past 30 days of data for over 8000 Wavebouys and Weather Stations around the globe.

Join Pro

Comparision Forecast

View Surf forecast
   
Tue 04/21 8:54am 8 13 mph 994.2mb 37f
8:48am 9 13 mph 994.2mb 37f
8:42am 8 13 mph 994.2mb 38f
8:36am 9 14 mph 994.2mb 38f
8:30am 9 16 mph 994.2mb 38f
8:24am 8 13 mph 994.2mb 38f
8:18am 9 14 mph 994.2mb 37f
8:12am 6 9 mph 994.3mb 37f
8:06am 6 9 mph 994.3mb 36f
8:00am 2 7 mph 994.3mb 36f
7:54am 7 11 mph 994.3mb 36f
7:48am 7 14 mph 994.3mb 36f
7:42am 9 16 mph 994.3mb 36f
7:36am 8 14 mph 994.3mb 36f
7:30am 8 16 mph 994.3mb 36f
7:24am 9 15 mph 994.3mb 36f
7:18am 9 13 mph 994.3mb 36f
7:12am 9 13 mph 994.4mb 36f
7:06am 10 15 mph 994.4mb 36f
7:00am 11 16 mph 994.4mb 36f
6:54am 10 15 mph 994.4mb 36f
6:48am 10 15 mph 994.4mb 36f
6:42am 9 14 mph 994.4mb 36f
6:36am 10 14 mph 994.5mb 36f
6:30am 8 13 mph 994.5mb 36f
6:24am 9 13 mph 994.6mb 36f
6:18am 8 14 mph 994.5mb 36f
6:12am 8 13 mph 994.6mb 36f
6:06am 8 11 mph 994.5mb 36f
6:00am 8 11 mph 994.6mb 36f
5:54am 8 14 mph 994.6mb 36f
5:48am 9 14 mph 994.6mb 36f
5:42am 7 11 mph 994.6mb 36f
5:36am 8 13 mph 994.6mb 36f
5:30am 8 14 mph 994.7mb 36f
5:24am 8 13 mph 994.7mb 36f
5:18am 7 11 mph 994.7mb 36f
5:12am 6 11 mph 994.7mb 36f
5:06am 6 11 mph 994.7mb 36f
5:00am 5 8 mph 994.7mb 36f
4:54am 7 10 mph 994.7mb 36f
4:48am 6 9 mph 994.7mb 36f
4:42am 7 11 mph 994.7mb 36f
4:36am 5 10 mph 994.8mb 36f
4:30am 6 10 mph 994.8mb -
4:24am 7 10 mph 994.9mb -
4:18am 7 10 mph 994.9mb 36f
4:12am 8 13 mph 994.9mb 36f
4:06am 9 13 mph 995mb 36f
4:00am 8 10 mph 994.9mb 36f
3:54am 8 13 mph 994.9mb 36f
3:48am 8 13 mph 994.8mb 36f
3:42am 8 11 mph 994.9mb 36f
3:36am 7 11 mph 994.8mb 36f
3:30am 8 11 mph 994.8mb 36f
3:24am 9 13 mph 994.8mb 36f
3:18am 7 13 mph 994.9mb 36f
3:12am 9 14 mph 994.8mb 36f
3:06am 8 11 mph 994.9mb 35f
3:00am 7 13 mph 994.9mb 35f
2:54am 8 11 mph 994.9mb 35f
2:48am 6 7 mph 994.8mb 35f
2:42am 5 7 mph 994.8mb 35f
2:36am 2 7 mph 994.8mb 35f
2:30am 3 8 mph 994.8mb 35f
2:24am 7 9 mph 994.8mb 35f
2:18am 7 11 mph 994.8mb 35f
2:12am 8 14 mph 994.8mb 35f
2:06am 6 11 mph 994.9mb 35f
2:00am 6 10 mph 994.9mb 35f
1:54am 5 8 mph 994.9mb 35f
1:48am 5 9 mph 994.9mb 36f
1:42am 5 8 mph 994.9mb 36f
1:36am 6 13 mph 994.9mb 36f
1:30am 7 10 mph 994.9mb 36f
1:24am 7 13 mph 994.9mb 36f
1:18am 5 11 mph 994.8mb 36f
1:12am 7 13 mph 994.7mb 36f
1:06am 8 13 mph 994.6mb 36f
1:00am 7 14 mph 994.6mb 36f
12:54am 6 11 mph 994.6mb 36f
12:48am 7 15 mph 994.6mb 36f
12:42am 9 13 mph 994.7mb 36f
12:36am 8 13 mph 994.7mb 36f
12:30am 7 13 mph 994.7mb 36f
12:24am 10 15 mph 994.6mb 36f
12:18am 8 14 mph 994.6mb 36f
12:12am 7 11 mph 994.7mb 36f
12:06am 6 14 mph 994.6mb 36f
12:00am 8 14 mph 994.6mb 36f
Mon 04/20 11:54pm 10 15 mph 994.6mb 36f
11:48pm 11 15 mph 994.6mb 36f
11:42pm 10 15 mph 994.6mb 36f
11:36pm 9 16 mph 994.6mb 36f
11:30pm 9 20 mph 994.5mb 36f
11:24pm 10 21 mph 994.5mb 36f
11:18pm 8 21 mph 994.5mb 36f
11:12pm 11 18 mph 994.5mb 36f
11:06pm 13 23 mph 994.5mb 36f
11:00pm 11 16 mph 994.4mb 36f
10:54pm 10 18 mph 994.4mb 36f
10:48pm 10 16 mph 994.4mb 36f
10:42pm 13 17 mph 994.3mb 36f
10:36pm 9 14 mph 994.2mb 36f
10:30pm 9 14 mph 994.2mb 36f
10:24pm 9 14 mph 994.1mb 36f
10:18pm 8 11 mph 994mb 36f
10:12pm 7 11 mph 994mb 36f
10:06pm 9 14 mph 993.9mb 36f
10:00pm 9 15 mph 993.8mb 36f
9:54pm 9 15 mph 993.8mb 36f
9:48pm 8 14 mph 993.8mb 36f
9:42pm 8 14 mph 993.7mb 36f
9:36pm 7 13 mph 993.7mb 36f
9:30pm 7 15 mph 993.6mb 36f
9:24pm 8 13 mph 993.5mb 36f
9:18pm 7 14 mph 993.5mb 36f
9:12pm 6 17 mph 993.4mb 37f
9:06pm 8 14 mph 993.3mb 37f
9:00pm 8 15 mph 993.3mb 37f
8:54pm 7 10 mph 993.3mb 37f
8:48pm 8 16 mph 993.3mb 37f
8:42pm 9 14 mph 993.1mb 37f
8:36pm 5 10 mph 993mb 37f
8:30pm 8 11 mph 992.9mb 37f
8:24pm 5 8 mph 992.8mb 37f
8:18pm 3 10 mph 992.8mb 37f
8:12pm 6 10 mph 992.7mb 37f
8:06pm 6 9 mph 992.5mb 38f
8:00pm 7 10 mph 992.4mb 38f
7:54pm 7 11 mph 992.2mb 38f
7:48pm 8 10 mph 992mb 38f
7:42pm 9 13 mph 991.9mb 38f
7:36pm 9 13 mph 991.7mb 38f
7:30pm 8 14 mph 991.5mb 38f
7:24pm 10 16 mph 991.3mb 38f
7:18pm 9 20 mph 991.3mb 38f
7:12pm 9 15 mph 991.1mb 38f
7:06pm 10 18 mph 991mb 38f
7:00pm 13 20 mph 990.9mb 38f
6:54pm 14 22 mph 990.8mb 38f
6:48pm 10 16 mph 990.6mb 38f
6:42pm 11 18 mph 990.5mb 38f
6:36pm 13 24 mph 990.5mb 39f
6:30pm 10 22 mph 990.5mb 39f
6:24pm 14 21 mph 990.4mb 39f
6:18pm 16 28 mph 990.3mb 39f
6:12pm 13 22 mph 990.2mb 39f
6:06pm 13 22 mph 990mb 39f
6:00pm 13 22 mph 989.9mb 39f
5:54pm 13 23 mph 989.8mb 39f
5:48pm 14 25 mph 989.6mb 40f
5:42pm 13 21 mph 989.5mb 40f
5:36pm 13 20 mph 989.4mb 40f
5:30pm 13 16 mph 989.3mb 40f
5:24pm 8 17 mph 989.1mb 40f
5:18pm 10 17 mph 988.9mb 40f
5:12pm 8 11 mph 988.8mb 40f
5:06pm 7 13 mph 988.7mb 40f
5:00pm 9 15 mph 988.6mb 40f
4:54pm 9 16 mph 988.5mb 40f
4:48pm 10 16 mph 988.4mb 40f
4:42pm 10 15 mph 988.2mb 40f
4:36pm 8 18 mph 988.1mb 41f
4:30pm 9 14 mph 987.9mb 40f
4:24pm 6 13 mph 987.9mb 40f
4:18pm 8 17 mph 987.8mb 40f
4:12pm 6 17 mph 987.7mb 40f
4:06pm 11 20 mph 987.6mb 40f
4:00pm 10 15 mph 987.5mb 40f
3:54pm 11 20 mph 987.4mb 41f
3:48pm 14 23 mph 987.2mb 41f
3:42pm 14 21 mph 986.9mb 41f
3:36pm 14 22 mph 986.9mb 41f
3:30pm 14 22 mph 986.7mb 42f
3:24pm 14 22 mph 986.6mb 42f
3:18pm 14 24 mph 986.5mb 42f
3:12pm 11 21 mph 986.4mb 43f
3:06pm 16 24 mph 986.2mb 44f
3:00pm 14 22 mph 986mb 44f
2:54pm 14 18 mph 985.9mb 45f
2:48pm 11 16 mph 985.8mb 45f
2:42pm 10 15 mph 985.7mb 44f
2:36pm 8 13 mph 985.6mb 44f
2:30pm 6 9 mph 985.7mb 43f
2:24pm 5 9 mph 985.6mb 40f
2:18pm 6 8 mph 985.5mb 39f
2:12pm 7 9 mph 985.4mb 39f
2:06pm 7 8 mph 985.3mb 40f
2:00pm 7 9 mph 985.2mb 39f
1:54pm 6 8 mph 985.1mb 40f
1:48pm 6 8 mph 985mb 40f
1:42pm 6 7 mph 984.9mb 41f
1:36pm 6 8 mph 984.8mb 41f
1:30pm 7 8 mph 984.7mb 40f
1:24pm 7 9 mph 984.7mb 40f
1:18pm 7 8 mph 984.7mb 40f
1:12pm 7 9 mph 984.7mb 40f
1:06pm 8 9 mph 984.6mb 40f
1:00pm 7 9 mph 984.5mb 41f
12:54pm 8 9 mph 984.4mb 40f
12:48pm 6 8 mph 984.3mb 40f
12:42pm 6 8 mph 984.3mb 40f
12:36pm 6 8 mph 984.3mb 40f
12:30pm 6 8 mph 984.3mb 40f
12:24pm 6 7 mph 984.3mb 40f
12:18pm 6
mph
984.2mb 40f
12:12pm 5 6 mph 984.2mb 40f
12:06pm 6 7 mph 984.1mb 40f
12:00pm 5 7 mph 984.2mb 40f
11:54am 6 9 mph 984.2mb 39f
11:48am 7 10 mph 984.2mb 39f
11:42am 9 13 mph 984.2mb 39f
11:36am 10 14 mph 984.2mb 39f
11:30am 11 15 mph 984.2mb 39f
11:24am 10 16 mph 984.2mb 39f
11:18am 14 16 mph 984.2mb 40f
11:12am 13 18 mph 984.2mb 40f
11:06am 14 16 mph 984.2mb 40f
11:00am 14 16 mph 984.2mb 40f
10:54am 15 20 mph 984.2mb 41f
10:48am 15 17 mph 984.2mb 41f
10:42am 15 20 mph 984.3mb 41f
10:36am 14 17 mph 984.3mb 41f
10:30am 14 21 mph 984.4mb 41f
10:24am 17 22 mph 984.5mb 42f
10:18am 20 22 mph 984.5mb 42f
10:12am 20 25 mph 984.7mb 42f
10:06am 17 22 mph 984.7mb 42f
10:00am 22 24 mph 984.8mb 42f
9:54am 22 29 mph 984.9mb 42f
9:48am 21 25 mph 984.9mb 42f
9:42am 17 26 mph 985.1mb 42f
9:36am 16 24 mph 985.2mb 42f
9:30am 15 25 mph 985.3mb 42f
9:24am 16 22 mph 985.4mb 43f
9:18am 20 24 mph 985.4mb 43f
9:12am 20 26 mph 985.5mb 43f
9:06am 16 24 mph 985.6mb 44f
9:00am 24 33 mph 985.7mb 44f
8:54am 13 28 mph 985.9mb 43f
8:48am 11 20 mph 985.9mb 43f
8:42am 8 13 mph 986mb 40f
8:36am 8 15 mph 986.1mb 38f
8:30am 13 14 mph 986.3mb 38f
8:24am 9 13 mph 986.4mb 39f
8:18am 10 11 mph 986.5mb 39f
8:12am 9 11 mph 986.7mb 39f
8:06am 10 13 mph 986.8mb 39f
8:00am 11 13 mph 987mb 38f
7:54am 11 15 mph 987.2mb 39f
7:48am 10 14 mph 987.3mb 39f
7:42am 10 14 mph 987.5mb 39f
7:36am 10 15 mph 987.7mb 39f
7:30am 9 17 mph 987.8mb 39f
7:24am 10 15 mph 988mb 40f
7:18am 14 20 mph 988.1mb 40f
7:12am 11 15 mph 988.3mb 39f
7:06am 10 15 mph 988.4mb 39f
7:00am 11 15 mph 988.6mb 39f
6:54am 11 15 mph 988.7mb 39f
6:48am 10 15 mph 988.8mb 39f
6:42am 9 14 mph 989mb 39f
6:36am 10 20 mph 989.1mb 38f
6:30am 11 14 mph 989.3mb 38f
6:24am 11 16 mph 989.5mb 38f
6:18am 8 14 mph 989.7mb 38f
6:12am 5 7 mph 989.8mb 38f
6:06am 9 13 mph 990.1mb 38f
6:00am 10 18 mph 990.2mb 38f
5:54am 13 18 mph 990.4mb 38f
5:48am 14 16 mph 990.5mb 38f
5:42am 14 18 mph 990.7mb 38f
5:36am 14 16 mph 990.9mb 38f
5:30am 13 17 mph 991mb 38f
5:24am 13 18 mph 991.2mb 37f
5:18am 15 22 mph 991.4mb 37f
5:12am 15 21 mph 991.6mb 38f
5:06am 16 21 mph 991.9mb 38f
5:00am 18 22 mph 992.2mb 38f
4:54am 18 22 mph 992.3mb 38f
4:48am 21 26 mph 992.4mb -
4:42am 17 24 mph 992.6mb -
4:36am 18 24 mph 992.8mb -
4:30am 20 24 mph 993mb 37f
4:24am 18 23 mph 993.3mb 38f
4:18am 20 26 mph 993.5mb 38f
4:12am 20 28 mph 993.7mb 38f
4:06am 21 25 mph 994mb 38f
4:00am 18 26 mph 994.2mb 38f
3:54am 18 26 mph 994.6mb 38f
3:48am 17 25 mph 994.9mb 38f
3:42am 18 23 mph 995.2mb 38f
3:36am 17 23 mph 995.4mb 38f
3:30am 18 23 mph 995.5mb 38f
3:24am 17 22 mph 995.6mb 38f
3:18am 15 18 mph 995.7mb 38f
3:12am 13 15 mph 996mb 38f
3:06am 13 15 mph 996.3mb 37f
3:00am 11 13 mph 996.5mb 37f
2:54am 11 14 mph 996.7mb 38f
2:48am 10 13 mph 996.8mb 38f
2:42am 9 11 mph 997.1mb 38f
2:36am 8 10 mph 997.3mb 38f
2:30am 8 9 mph 997.6mb 38f
2:24am 9 13 mph 997.8mb 38f
2:18am 9 13 mph 998mb 38f
2:12am 9 15 mph 998.3mb 39f
2:06am 9 14 mph 998.6mb 39f
2:00am 9 13 mph 998.8mb 38f
1:54am 9 14 mph 999.1mb 39f
1:48am 10 13 mph 999.2mb 39f
1:42am 10 13 mph 999.3mb 39f
1:36am 10 15 mph 999.4mb 42f
1:30am 11 21 mph 999.6mb 44f
1:24am 15 23 mph 999.8mb 46f
1:18am 16 31 mph 999.9mb 47f
1:12am 16 25 mph 1000.1mb 47f
1:06am 22 28 mph 1000.3mb 47f
1:00am 22 31 mph 1000.4mb 48f
12:54am 23 34 mph 1000.6mb 47f
12:48am 24 32 mph 1000.8mb 48f
12:42am 24 31 mph 1001mb 48f
12:36am 28 33 mph 1001.2mb 48f
12:30am 26 37 mph 1001.4mb 48f
12:24am 24 39 mph 1001.5mb 48f
12:18am 29 38 mph 1001.7mb 49f
12:12am 24 32 mph 1001.9mb 49f
12:06am 25 33 mph 1002.1mb 49f
12:00am 25 36 mph 1002.3mb 48f
Sun 04/19 11:54pm 25 37 mph 1002.4mb 48f
11:48pm 25 31 mph 1002.7mb 48f
11:42pm 24 33 mph 1002.8mb 48f
11:36pm 25 34 mph 1003mb 48f
11:30pm 25 37 mph 1003.2mb 48f
11:24pm 26 39 mph 1003.4mb 49f
11:18pm 24 31 mph 1003.4mb 49f
11:12pm 20 31 mph 1003.6mb 46f
11:06pm 13 25 mph 1003.8mb 46f
11:00pm 13 18 mph 1004mb 43f
10:54pm 9 15 mph 1004.1mb 43f
10:48pm 11 14 mph 1004.2mb 45f
10:42pm 11 18 mph 1004.3mb 44f
10:36pm 10 14 mph 1004.2mb 41f
10:30pm 14 17 mph 1004.3mb 40f
10:24pm 10 29 mph 1004.4mb -
10:18pm 18 25 mph 1004.4mb 48f
10:12pm 20 32 mph 1004.5mb 48f
10:06pm 21 31 mph 1004.5mb 48f
10:00pm 24 32 mph 1004.6mb 47f
9:54pm 21 29 mph 1004.8mb 47f
9:48pm 22 28 mph 1004.9mb 47f
9:42pm 20 33 mph 1005.1mb 46f
9:36pm 25 36 mph 1005.2mb 47f
9:30pm 29 40 mph 1005.4mb 47f
9:24pm 29 43 mph 1005.5mb 47f
9:18pm 30 37 mph 1005.7mb 47f
9:12pm 26 34 mph 1005.8mb 49f
9:06pm 29 41 mph 1005.8mb 50f
9:00pm 24 36 mph 1006mb 49f
8:54pm 16 36 mph 1006mb 50f
8:48pm 25 36 mph 1006mb 51f
8:42pm 22 29 mph 1006.3mb 51f
8:36pm 25 31 mph 1006.4mb 51f
8:30pm 25 36 mph 1006.5mb 51f
8:24pm 18 30 mph 1006.7mb 49f
8:18pm 25 34 mph 1006.8mb 50f
8:12pm 20 37 mph 1007mb 49f
8:06pm 22 30 mph 1007mb 50f
8:00pm 21 32 mph 1007.1mb 50f
7:54pm 24 31 mph 1007.3mb 50f
7:48pm 25 31 mph 1007.4mb 50f
7:42pm 23 37 mph 1007.6mb 50f
7:36pm 28 33 mph 1007.8mb 50f
7:30pm 24 31 mph 1007.9mb 49f
7:24pm 22 31 mph 1008mb 49f
7:18pm 26 32 mph 1008mb -
7:12pm 22 30 mph 1008.2mb 49f
7:06pm 22 36 mph 1008.3mb 49f
7:00pm 23 31 mph 1008.4mb -
6:54pm 22 34 mph 1008.6mb 48f
6:48pm 28 33 mph 1008.7mb 49f
6:42pm 23 33 mph 1008.9mb 48f
6:36pm 25 33 mph 1009.1mb 49f
6:24pm 23 33 mph 1009.2mb 48f
6:18pm 22 36 mph 1009.3mb 48f
6:12pm 22 30 mph 1009.5mb 48f
6:06pm 21 25 mph 1009.6mb 48f
6:00pm 18 26 mph 1009.7mb 48f
5:54pm 22 29 mph 1009.8mb 48f
5:48pm 17 26 mph 1009.9mb 48f
5:42pm 20 30 mph 1010mb 48f
5:36pm 21 28 mph 1010.1mb 48f
5:24pm 24 31 mph 1010.6mb 47f
5:18pm 25 33 mph 1010.7mb 47f
5:12pm 21 30 mph 1010.8mb 46f
5:06pm 24 31 mph 1011mb 46f
4:54pm 23 31 mph 1011.4mb 45f
4:48pm 22 25 mph 1011.6mb 45f
4:42pm 17 24 mph 1011.8mb 45f
4:36pm 17 26 mph 1011.8mb 45f
4:30pm 18 26 mph 1011.9mb -
4:24pm 22 28 mph 1012mb 45f
4:18pm 22 26 mph 1012.1mb 44f
4:12pm 21 30 mph 1012.4mb 44f
4:06pm 22 29 mph 1012.4mb 43f
4:00pm 26 29 mph 1012.3mb 43f
3:54pm 24 29 mph 1012.6mb 42f
3:48pm 25 30 mph 1012.7mb 41f
3:42pm 22 28 mph 1012.7mb 42f
3:36pm 22 26 mph 1012.7mb 42f
3:30pm 18 28 mph 1012.7mb 42f
3:24pm 20 25 mph 1012.8mb 43f
3:18pm 22 26 mph 1013mb 41f
3:12pm 22 29 mph 1013.2mb 41f
3:06pm 22 28 mph 1013.4mb 42f
3:00pm 23 26 mph 1013.5mb 42f
2:54pm 21 23 mph 1013.8mb 42f
2:48pm 22 28 mph 1014mb 41f
2:42pm 22 30 mph 1014.2mb 42f
2:36pm 21 26 mph 1014.4mb 41f
2:30pm 20 28 mph 1014.5mb 41f
2:24pm 22 28 mph 1014.7mb 41f
2:18pm 23 29 mph 1014.8mb 40f
2:12pm 21 25 mph 1015mb 40f
2:06pm 20 25 mph 1015.1mb 40f
2:00pm 23 29 mph 1015.1mb 40f
1:54pm 22 25 mph 1015.2mb 41f
1:42pm 21 28 mph 1015.3mb 41f
1:36pm 18 23 mph 1015.5mb 41f
1:30pm 18 24 mph 1015.6mb 41f
1:24pm 17 22 mph 1015.8mb 41f
1:18pm 16 23 mph 1016mb 41f
1:12pm 16 24 mph 1016.2mb 41f
1:06pm 21 24 mph 1016.4mb 41f
1:00pm 21 26 mph 1016.5mb 42f
12:54pm 18 28 mph 1016.6mb 42f
12:48pm 21 26 mph - -
12:42pm 17 28 mph 1016.8mb 43f
12:36pm 17 28 mph 1017.1mb 42f
12:30pm 22 28 mph 1017.3mb 43f
12:24pm 20 33 mph 1017.5mb 42f
12:18pm 23 30 mph 1017.7mb 41f
12:12pm 24 33 mph 1017.9mb 41f
12:06pm 29 34 mph 1017.9mb 41f
12:00pm 22 34 mph 1018mb 40f
11:54am 25 33 mph 1018.1mb 41f
11:42am 23 33 mph 1018.3mb 41f
11:36am 28 32 mph 1018.4mb 41f
11:30am 24 33 mph 1018.5mb 40f
11:24am 22 32 mph 1018.6mb 41f
11:18am 23 33 mph 1018.6mb -
11:12am 26 32 mph 1018.7mb 40f
11:06am 24 34 mph 1018.8mb 40f
11:00am 25 36 mph 1019mb 40f
10:54am 28 34 mph 1019.1mb 40f
10:48am 24 30 mph 1019.1mb 40f
10:42am 24 31 mph 1019.3mb 40f
10:36am 29 33 mph 1019.3mb 40f
10:30am 25 32 mph 1019.5mb -
10:24am 22 29 mph 1019.7mb 41f
10:18am 21 26 mph 1019.8mb 40f
10:12am 21 29 mph 1019.9mb 40f
10:06am 21 28 mph 1020.1mb 40f
10:00am 20 24 mph 1020.2mb 40f
9:54am 21 30 mph 1020.2mb 40f
9:48am 24 32 mph 1020.3mb -
9:36am 24 33 mph 1020.4mb 40f
9:30am 29 32 mph 1020.4mb 40f
9:18am 22 30 mph 1020.6mb 40f
9:12am 24 30 mph 1020.8mb 40f
9:06am 23 29 mph 1020.8mb 40f
9:00am 24 29 mph 1021mb 39f
8:54am 21 29 mph 1021.1mb 39f
8:48am 23 28 mph 1021.2mb 39f
8:42am 18 32 mph 1021.4mb 38f
8:36am 23 31 mph 1021.5mb 38f
8:30am 22 34 mph 1021.6mb 38f
8:24am 20 30 mph 1021.7mb 37f
8:18am 25 29 mph 1021.8mb 37f
8:12am 23 32 mph 1021.9mb 37f
8:06am 23 28 mph 1022mb 37f
8:00am 21 26 mph 1022.1mb -
7:54am 20 28 mph 1022.1mb 37f
7:48am 18 26 mph 1022.1mb 37f
7:42am 22 30 mph 1022mb 37f
7:36am 13 22 mph 1022.1mb 37f
7:30am 13 21 mph 1022.2mb 37f
7:24am 14 21 mph 1022.3mb 36f
7:18am 10 15 mph 1022.3mb 36f
7:12am 9 13 mph 1022.4mb 35f
7:06am 9 11 mph 1022.4mb 35f
7:00am 9 13 mph 1022.3mb 34f
6:54am 9 13 mph 1022.3mb 34f
6:48am 9 11 mph 1022.2mb 34f
6:42am 9 11 mph 1022.1mb 33f
6:36am 9 10 mph 1022.1mb 33f
6:30am 8 10 mph 1022.2mb 33f
6:24am 7 9 mph 1022.2mb 33f
6:18am 7 10 mph 1022.2mb 33f
6:12am 6 8 mph 1022.1mb 33f
6:06am 6 7 mph 1022.2mb 33f
6:00am 6 8 mph 1022.2mb 33f
5:54am 7 9 mph 1022.1mb 33f
5:48am 6 8 mph 1022.1mb 33f
5:42am 6 8 mph 1022.2mb 33f
5:36am 6 8 mph 1022.3mb 33f
5:30am 6 7 mph 1022.2mb 33f
5:24am 6 9 mph 1022.2mb 34f
5:18am 8 14 mph 1022.1mb -
5:12am 7 15 mph 1022.1mb 36f
5:06am 9 14 mph 1022.2mb 37f
5:00am 10 14 mph 1022.1mb 37f
4:54am 10 13 mph 1022.2mb 37f
4:48am 10 13 mph 1022.2mb 37f
4:42am 10 14 mph 1022.2mb 37f
4:36am 9 17 mph 1022.1mb 37f
4:30am 11 15 mph 1022.1mb 37f
4:24am 13 17 mph 1022mb 38f
4:18am 16 21 mph 1021.8mb 38f
4:12am 14 16 mph 1021.8mb 38f
4:06am 13 20 mph 1021.8mb 38f
4:00am 13 16 mph 1021.8mb 38f
3:54am 14 23 mph 1021.9mb 38f
3:48am 18 23 mph 1021.9mb -
3:42am 15 25 mph 1022mb 39f
3:36am 15 22 mph 1021.9mb 39f
3:30am 17 24 mph 1022.1mb 39f
3:24am 17 23 mph 1022.2mb 40f
3:18am 16 22 mph 1022.2mb 39f
3:12am 18 23 mph 1022.2mb 40f
3:06am 16 20 mph 1022.1mb 40f
3:00am 14 18 mph 1022.2mb 40f
2:54am 15 17 mph 1022.3mb 40f
2:48am 17 22 mph - -
2:42am 14 21 mph 1022.3mb 40f
2:36am 15 20 mph 1022.3mb 41f
2:30am 15 20 mph 1022.3mb 41f
2:24am 15 21 mph 1022.3mb 41f
2:18am 15 17 mph 1022.4mb 41f
2:12am 17 22 mph 1022.4mb 41f
2:06am 15 20 mph 1022.4mb 41f
2:00am 14 15 mph 1022.5mb 41f
1:54am 11 15 mph 1022.5mb 41f
1:48am 11 15 mph 1022.4mb 41f
1:42am 13 17 mph 1022.4mb -
1:30am 13 18 mph 1022.3mb -
1:12am  -  mph - 43f
12:54am 14 17 mph 1022.5mb 42f
12:48am 14 20 mph 1022.6mb 42f
12:42am 13 16 mph 1022.6mb 42f
12:36am 13 16 mph 1022.6mb 42f
12:30am 13 15 mph 1022.7mb 42f
12:24am 11 14 mph 1022.7mb 42f
12:18am 13 16 mph 1022.8mb 42f
12:12am 10 14 mph 1022.8mb 42f
12:06am 10 13 mph 1022.8mb 41f
12:00am 10 13 mph 1022.8mb 40f
Sat 04/18 11:54pm 9 11 mph 1022.9mb 40f
11:48pm 9
mph
- -
11:42pm 3 7 mph 1022.9mb 38f
11:36pm 2 5 mph 1022.8mb 39f
11:30pm 2 5 mph 1022.7mb 37f
11:24pm 5 7 mph 1022.7mb 36f
11:18pm 5 9 mph 1022.8mb 35f
11:12pm 8 10 mph 1022.8mb 35f
11:06pm 7 8 mph 1022.6mb 35f
11:00pm 6 7 mph 1022.6mb 35f
10:54pm 6 7 mph 1022.7mb 36f
10:48pm 6
mph
1022.8mb 34f
10:42pm 2 5 mph 1022.8mb 38f
10:36pm 5
mph
1022.8mb 40f
10:30pm 2 3 mph 1022.8mb 40f
10:24pm 3
mph
1022.8mb 40f
10:12pm 3 5 mph 1022.9mb 40f
10:06pm 3
mph
1022.9mb 41f
10:00pm 2
mph
1023mb 40f
9:54pm  -  1 mph 1023.1mb 39f
9:48pm 1 3 mph 1023.1mb 39f
9:42pm 3
mph
1023.2mb 39f
9:36pm 2
mph
1023.2mb 39f
9:30pm 1 2 mph 1023.1mb 39f
9:24pm 1 2 mph 1023.1mb 39f
9:18pm 2 3 mph - -
9:12pm 3
mph
1023.1mb 39f
9:06pm  -  1 mph 1023.1mb 38f
9:00pm  -  1 mph 1023.1mb 40f
8:48pm 2
mph
1023mb 41f
8:42pm 2 6 mph 1023mb 41f
8:36pm 5 6 mph 1023.1mb 46f
8:30pm 5 6 mph 1023mb 43f
8:24pm 5 6 mph 1022.9mb 44f
8:18pm 5
mph
1022.8mb 43f
8:12pm 2 3 mph 1022.8mb 42f
8:06pm 2 5 mph 1022.7mb 43f
7:54pm 1 5 mph 1022.6mb 41f
7:48pm 3 5 mph 1022.6mb 41f
7:42pm 2 6 mph 1022.5mb 41f
7:36pm 3 8 mph 1022.5mb 41f
7:30pm 6 7 mph 1022.4mb 40f
7:24pm 5
mph
1022.4mb 40f
7:18pm 2
mph
1022.5mb 43f
7:12pm 2 6 mph 1022.5mb 42f
7:06pm 5 6 mph 1022.4mb 45f
7:00pm 3 6 mph 1022.4mb 48f
6:54pm 5 7 mph 1022.5mb 48f
6:48pm 2 6 mph 1022.5mb 49f
6:42pm 3 6 mph 1022.4mb 49f
6:36pm 6 8 mph 1022.5mb 48f
6:30pm 3 6 mph 1022.5mb 50f
6:24pm 3 8 mph 1022.5mb 50f
6:12pm 3 7 mph 1022.4mb 51f
6:06pm 3 9 mph 1022.4mb 50f
6:00pm 5 7 mph 1022.4mb 51f
5:54pm 6 9 mph 1022.4mb 50f
5:48pm 6 10 mph 1022.4mb 50f
5:42pm 7 10 mph 1022.4mb 50f
5:36pm 7 10 mph 1022.4mb 50f
5:30pm 7 9 mph 1022.4mb 51f
5:24pm 8 11 mph 1022.4mb 50f
5:18pm 6 10 mph 1022.4mb -
5:12pm 7 11 mph 1022.4mb 51f
5:06pm 6 10 mph 1022.4mb 51f
5:00pm 6 11 mph 1022.4mb 51f
4:54pm 7 11 mph 1022.4mb 51f
4:48pm 7 11 mph 1022.3mb 51f
4:42pm 8 13 mph 1022.4mb 50f
4:36pm 10 14 mph 1022.3mb 50f
4:30pm 9 14 mph 1022.3mb 51f
4:24pm 10 16 mph 1022.2mb 50f
4:18pm 9 14 mph - -
4:12pm 8 13 mph 1022.1mb 50f
4:06pm 6 13 mph 1022.1mb 51f
4:00pm 7 14 mph 1022.1mb 50f
3:54pm 8 14 mph 1022mb 50f
3:48pm 7 10 mph 1021.9mb 50f
3:42pm 7 13 mph 1021.9mb 52f
3:36pm 9 14 mph 1022mb 51f
3:30pm 7 10 mph 1021.9mb 52f
3:24pm 8 9 mph 1021.9mb 52f
3:18pm 7 11 mph 1021.8mb 51f
3:12pm 7 9 mph 1021.7mb 51f
3:06pm 7 11 mph 1021.8mb 51f
3:00pm 10 14 mph 1021.9mb 51f
2:54pm 8 13 mph 1021.9mb 50f
2:48pm 9 11 mph 1021.8mb 45f
2:42pm 5 7 mph 1021.8mb 50f
2:36pm 6 11 mph 1021.8mb 47f
2:30pm 5 10 mph 1021.8mb 44f
2:24pm 5 6 mph 1021.7mb 49f
2:18pm 6 7 mph 1021.6mb 51f
2:12pm 6 7 mph 1021.7mb 51f
2:06pm 6 7 mph 1021.7mb 51f
1:54pm 6
mph
1021.7mb 51f
1:48pm 6 7 mph 1021.6mb 51f
1:42pm 7
mph
1021.6mb 51f
1:36pm 6 7 mph 1021.7mb 51f
1:30pm 7 8 mph 1021.6mb 50f
1:24pm 7
mph
1021.6mb 50f
1:18pm 6 7 mph 1021.7mb 51f
1:12pm 7 8 mph 1021.6mb 50f
1:06pm 7 8 mph 1021.6mb 50f
1:00pm 7 8 mph 1021.6mb 49f
12:54pm 7 8 mph 1021.6mb 49f
12:48pm 7 8 mph 1021.6mb 49f
12:42pm 7
mph
1021.7mb 50f
12:36pm 6
mph
1021.8mb 50f
12:30pm 6
mph
1021.8mb 49f
12:24pm 6
mph
1021.8mb 49f
12:18pm 5
mph
1021.9mb 49f
12:12pm 5 6 mph 1021.8mb 48f
12:06pm 5
mph
1021.9mb 48f
12:00pm 3 5 mph 1021.9mb 48f
11:54am 3 5 mph 1021.9mb 47f
11:48am 3 5 mph 1021.8mb 46f
11:42am 3 6 mph 1021.8mb 47f
11:36am 3 5 mph 1021.8mb 46f
11:30am 6 8 mph 1021.8mb 47f
11:24am 8 9 mph 1021.8mb 46f
11:18am 9 10 mph - -
11:12am 10 11 mph 1021.7mb 43f
11:06am 10
mph
1021.7mb 45f
11:00am 10 11 mph 1021.7mb 46f
10:54am 9
mph
1021.7mb 46f
10:48am 10 11 mph 1021.8mb -
10:42am 9 11 mph 1021.8mb 43f
10:36am 10
mph
1021.8mb 41f
10:30am 8 9 mph 1021.8mb 41f
10:24am 10 11 mph 1021.7mb 41f
10:18am 9 11 mph 1021.5mb 37f
10:12am 7 9 mph 1021.5mb 41f
10:06am 7 9 mph 1021.6mb 39f
10:00am 8 9 mph 1021.6mb 42f
9:54am 7 10 mph 1021.5mb 40f
9:48am 9 11 mph 1021.3mb 41f
9:42am 7 9 mph 1021.2mb 42f
9:36am 7 8 mph 1021.2mb 42f
9:30am 8 10 mph 1021mb 42f
9:24am 7 9 mph 1021mb 41f
9:18am 7 9 mph 1020.9mb -
9:12am 8 10 mph 1020.8mb 42f
9:06am 7 10 mph 1020.8mb 43f
9:00am 9 11 mph 1020.6mb 43f
8:54am 10 11 mph 1020.6mb 43f
8:48am 10 13 mph 1020.6mb 44f
8:42am 9 13 mph 1020.5mb 44f
8:36am 9 14 mph 1020.4mb 44f
8:30am 9 11 mph 1020.3mb 44f
8:24am 8 13 mph 1020.2mb 43f
8:18am 7 11 mph 1020.1mb -
8:12am 8 10 mph 1020mb 43f
8:06am 7 9 mph 1020mb 43f
8:00am 6 11 mph 1020mb 43f
7:54am 7 13 mph 1019.9mb 43f
7:48am 8 14 mph 1019.9mb 43f
7:42am 7 14 mph 1019.9mb 44f
7:36am 9 15 mph 1019.7mb 43f
7:30am 11 17 mph 1019.6mb 43f
7:24am 11 17 mph 1019.4mb 43f
7:18am 10 14 mph 1019.3mb 43f
7:12am 7 14 mph 1019.4mb 42f
7:06am 8 13 mph 1019.3mb 42f
7:00am 8 15 mph 1019.1mb 42f
6:54am 9 13 mph 1018.9mb 41f
6:48am 9 13 mph 1018.6mb 41f
6:42am 9 13 mph 1018.4mb 41f
6:36am 7 11 mph 1018.2mb 41f
6:30am 8 14 mph 1017.9mb 40f
6:24am 8 14 mph 1017.7mb 40f
6:18am 9 13 mph 1017.6mb -
6:12am 8 14 mph 1017.4mb 40f
6:06am 8 11 mph 1017.2mb 40f
6:00am 8 11 mph 1017.1mb 40f
5:54am 9 14 mph 1016.9mb 40f
5:48am 8 13 mph 1016.9mb 40f
5:42am 8 15 mph 1016.8mb 41f
5:36am 10 14 mph 1016.7mb 41f
5:30am 8 16 mph 1016.6mb 41f
5:24am 10 17 mph 1016.4mb 41f
5:12am 9 15 mph 1016.1mb 41f
5:06am 10 17 mph 1015.8mb 41f
5:00am 11 17 mph 1015.6mb 41f
4:54am 11 20 mph 1015.5mb 41f
4:48am 14 22 mph 1015.3mb 42f
4:42am 11 18 mph 1015.2mb 42f
4:36am 15 22 mph 1015mb 42f
4:30am 11 17 mph 1014.8mb 42f
4:24am 9 15 mph 1014.7mb 42f
4:18am 8 13 mph 1014.5mb -
4:12am 8 13 mph 1014.4mb 42f
4:06am 7 13 mph 1014.3mb 42f
4:00am 8 14 mph 1014.4mb 42f
3:54am 9 15 mph 1014.3mb 42f
3:48am 10 14 mph 1014.3mb 42f
3:42am 8 13 mph 1014.3mb 42f
3:36am 7 11 mph 1014.1mb 42f
3:30am 8 14 mph 1014.1mb 43f
3:24am 10 16 mph 1014.2mb 43f
3:18am 11 17 mph - -
3:12am 11 20 mph 1014mb 44f
3:06am 11 18 mph 1013.8mb 45f
3:00am 8 13 mph 1013.5mb 45f
2:54am 10 25 mph 1013.1mb 46f
2:48am 6 11 mph 1013mb 47f
2:42am 8 13 mph 1012.4mb 46f
2:36am 9 14 mph 1012.1mb 46f
2:30am 9 13 mph 1012.2mb 46f
2:24am 9 14 mph 1012.2mb 46f
2:18am 10 14 mph 1012.2mb 46f
2:12am 11 16 mph 1012.3mb 45f
2:06am 11 15 mph 1012.2mb 44f
2:00am 10 16 mph 1012.3mb 44f
1:48am 11 16 mph 1012.4mb 42f
1:42am 11 16 mph - -
1:24am 11 15 mph 1012.9mb 41f
1:12am 9 15 mph 1012.9mb 40f
1:06am 10 15 mph 1013mb 40f
12:54am 8 14 mph 1013.2mb 39f
12:48am 7 11 mph 1013.3mb 38f
12:42am 7 11 mph 1013.5mb 38f
12:24am 6 8 mph 1013.8mb 37f
12:18am 7 8 mph 1013.8mb 38f
12:12am 7 10 mph 1013.9mb 38f
12:06am 8 11 mph 1013.9mb 38f
12:00am 10 13 mph 1014mb 39f
Fri 04/17 11:54pm 9 11 mph 1014mb 38f
11:48pm 5 7 mph 1013.9mb 45f
11:36pm 3 5 mph 1014mb 42f
11:24pm 1 3 mph 1014mb 43f
11:18pm 2 3 mph 1014.1mb 42f
11:12pm  -  1 mph 1014mb 42f
10:54pm  -  1 mph 1013.9mb 41f
10:48pm  -  1 mph 1014.1mb 41f
10:42pm  -  1 mph 1014.2mb 41f
10:36pm  -  2 mph 1014.3mb 41f
10:30pm 1 3 mph 1014.4mb 40f
10:24pm 2 3 mph 1014.4mb 41f
10:18pm 2 3 mph 1014.5mb 41f
10:12pm 2 3 mph 1014.6mb 43f
10:06pm 3
mph
1014.7mb 42f
10:00pm 3 5 mph 1014.7mb 42f
9:54pm 2
mph
1014.7mb 42f
9:48pm 1 2 mph 1014.8mb 43f
9:42pm  -  2 mph 1014.8mb 42f
9:36pm  -  3 mph 1014.9mb 44f
9:30pm 2 5 mph 1014.9mb 46f
9:24pm 3 6 mph 1014.9mb 47f
9:12pm 2 3 mph 1014.9mb 46f
9:06pm 2 3 mph 1014.8mb 45f
9:00pm 2 3 mph 1014.8mb 46f
8:54pm 2 3 mph 1014.7mb 45f
8:48pm 2 3 mph 1014.8mb 45f
8:42pm  -  1 mph 1014.7mb 45f
8:36pm 1 2 mph 1014.7mb 44f
8:30pm  -  2 mph 1014.8mb 44f
8:24pm 1 3 mph 1014.8mb 44f
8:18pm 2 3 mph 1014.9mb 45f
8:12pm 2 3 mph 1014.9mb 47f
8:06pm 2 3 mph 1015mb 47f
8:00pm 3 6 mph 1015mb 44f
7:54pm 5 6 mph 1015mb 41f
7:48pm 3 6 mph 1014.9mb 42f
7:42pm 1 2 mph 1014.9mb 43f
7:36pm 1 5 mph 1014.9mb 44f
7:30pm 2 3 mph 1014.9mb 42f
7:24pm  -  3 mph 1015mb 45f
7:18pm 2 6 mph 1015mb -
7:12pm 3 8 mph 1015mb 51f
7:06pm 6 11 mph 1014.9mb 52f
7:00pm 6 10 mph 1014.9mb 53f
6:54pm 6 10 mph 1014.9mb 53f
6:48pm 6 11 mph 1014.9mb 54f
6:42pm 7 13 mph 1014.9mb 54f
6:36pm 6 11 mph 1014.8mb 54f
6:30pm 8 11 mph 1014.7mb 54f
6:24pm 7 13 mph 1014.6mb 54f
6:18pm 6 13 mph 1014.6mb -
6:12pm 9 14 mph 1014.7mb 55f
6:06pm 9 11 mph 1014.6mb 54f
6:00pm 8 13 mph 1014.7mb 54f
5:54pm 8 13 mph 1014.7mb 54f
5:48pm 8 11 mph 1014.7mb 55f
5:42pm 9 11 mph 1014.7mb 55f
5:36pm 9 11 mph 1014.8mb 55f
5:30pm 8 11 mph 1014.8mb 56f
5:24pm 10 11 mph 1014.8mb 56f
5:18pm 8 13 mph 1014.8mb 55f
5:12pm 9 11 mph 1014.7mb 56f
5:06pm 7 11 mph 1014.7mb 56f
4:54pm 9 14 mph 1014.8mb 57f
4:48pm 9 13 mph 1014.8mb 56f
4:42pm 8 11 mph 1014.7mb 58f
4:36pm 8 11 mph 1014.8mb 57f
4:24pm 11 15 mph 1014.8mb 57f
4:18pm 9 14 mph 1014.8mb 57f
4:12pm 8 15 mph 1014.9mb 57f
4:06pm 10 17 mph 1014.9mb 57f
4:00pm 11 17 mph 1015mb -
3:54pm 10 17 mph 1015mb 56f
3:48pm 10 17 mph 1015mb 56f
3:36pm 14 17 mph 1015.1mb 56f
3:30pm 10 15 mph 1015.1mb 56f
3:24pm 8 16 mph 1015.1mb 57f
3:18pm 11 20 mph 1015.2mb 57f
3:12pm 13 18 mph 1015.1mb 57f
3:06pm 15 18 mph 1015.2mb 56f
3:00pm 14 20 mph 1015.2mb -
2:54pm 11 18 mph 1015.3mb 56f